createdAt,value
2019-03-11T00:04:51.775Z,1.50
2019-03-11T00:09:58.910Z,1.40
2019-03-11T00:15:06.208Z,1.30
2019-03-11T00:20:34.271Z,1.30
2019-03-11T00:25:41.376Z,1.20
2019-03-11T00:30:48.620Z,1.10
2019-03-11T00:35:55.699Z,1.10
2019-03-11T00:41:02.862Z,1.00
2019-03-11T00:46:10.171Z,0.80
2019-03-11T00:51:17.272Z,0.70
2019-03-11T00:56:24.364Z,0.80
2019-03-11T01:01:32.024Z,0.80
2019-03-11T01:06:39.107Z,0.80
2019-03-11T01:11:46.196Z,0.80
2019-03-11T01:16:53.357Z,0.80
2019-03-11T01:22:00.346Z,0.90
2019-03-11T01:27:11.263Z,1.10
2019-03-11T01:32:18.371Z,1.10
2019-03-11T01:37:25.593Z,1.10
2019-03-11T01:42:35.858Z,1.10
2019-03-11T01:47:43.179Z,1.10
2019-03-11T01:52:50.405Z,1.10
2019-03-11T01:57:58.511Z,1.20
2019-03-11T02:03:06.398Z,1.30
2019-03-11T02:08:13.705Z,1.40
2019-03-11T02:13:20.892Z,1.40
2019-03-11T02:18:29.735Z,1.20
2019-03-11T02:23:37.112Z,1.10
2019-03-11T02:28:44.275Z,1.00
2019-03-11T02:33:53.632Z,0.80
2019-03-11T02:39:01.156Z,0.60
2019-03-11T02:44:10.035Z,0.60
2019-03-11T02:49:17.417Z,0.50
2019-03-11T02:54:24.490Z,0.40
2019-03-11T02:59:32.492Z,0.30
2019-03-11T03:04:46.455Z,0.10
2019-03-11T03:09:56.702Z,-0.10
2019-03-11T03:15:03.918Z,-0.10
2019-03-11T03:20:11.525Z,-0.10
2019-03-11T03:25:33.240Z,-0.30
2019-03-11T03:30:27.329Z,-0.30
2019-03-11T03:35:36.138Z,-0.40
2019-03-11T03:40:43.654Z,-0.40
2019-03-11T03:45:50.756Z,-0.50
2019-03-11T03:50:57.966Z,-0.70
2019-03-11T03:56:05.812Z,-0.90
2019-03-11T04:01:13.259Z,-1.00
2019-03-11T04:06:20.384Z,-1.10
2019-03-11T04:11:27.907Z,-1.20
2019-03-11T04:16:35.682Z,-1.20
2019-03-11T04:21:42.899Z,-1.10
2019-03-11T04:26:55.105Z,-1.00
2019-03-11T04:32:04.484Z,-1.10
2019-03-11T04:37:11.587Z,-1.20
2019-03-11T04:42:18.765Z,-1.20
2019-03-11T04:47:26.082Z,-1.20
2019-03-11T04:52:33.176Z,-1.20
2019-03-11T04:57:45.159Z,-1.30
2019-03-11T05:02:55.615Z,-1.40
2019-03-11T05:08:02.706Z,-1.40
2019-03-11T05:13:09.854Z,-1.40
2019-03-11T05:18:18.242Z,-1.40
2019-03-11T05:23:28.622Z,-1.50
2019-03-11T05:28:37.684Z,-1.50
2019-03-11T05:33:44.895Z,-1.40
2019-03-11T05:38:51.976Z,-1.40
2019-03-11T05:43:59.208Z,-1.30
2019-03-11T05:49:12.763Z,-1.20
2019-03-11T05:54:21.490Z,-1.00
2019-03-11T05:59:28.872Z,-0.90
2019-03-11T06:04:36.443Z,-0.80
2019-03-11T06:09:43.633Z,-0.70
2019-03-11T06:14:51.047Z,-0.50
2019-03-11T06:20:13.925Z,-0.40
2019-03-11T06:25:21.040Z,-0.10
2019-03-11T06:30:28.175Z,0.00
2019-03-11T06:35:36.261Z,0.10
2019-03-11T06:40:45.734Z,0.30
2019-03-11T06:45:52.197Z,0.50
2019-03-11T06:50:59.394Z,0.60
2019-03-11T06:56:08.147Z,0.80
2019-03-11T07:01:15.442Z,1.00
2019-03-11T07:06:23.813Z,1.20
2019-03-11T07:11:31.012Z,1.40
2019-03-11T07:16:38.221Z,1.50
2019-03-11T07:21:48.529Z,1.60
2019-03-11T07:26:56.509Z,1.80
2019-03-11T07:32:05.407Z,2.00
2019-03-11T07:37:12.695Z,2.20
2019-03-11T07:42:23.035Z,2.30
2019-03-11T07:47:30.596Z,2.40
2019-03-11T07:52:42.397Z,2.60
2019-03-11T07:57:49.990Z,2.60
2019-03-11T08:02:58.832Z,3.00
2019-03-11T08:08:06.613Z,3.30
2019-03-11T08:13:14.773Z,3.30
2019-03-11T08:18:34.208Z,3.20
2019-03-11T08:23:31.984Z,3.30
2019-03-11T08:28:41.265Z,3.80
2019-03-11T08:33:48.712Z,4.00
2019-03-11T08:38:55.803Z,4.00
2019-03-11T08:44:04.142Z,4.20
2019-03-11T08:49:13.322Z,4.40
2019-03-11T08:54:20.751Z,4.60
2019-03-11T08:59:27.860Z,4.60
2019-03-11T09:04:35.509Z,4.80
2019-03-11T09:09:42.621Z,4.50
2019-03-11T09:14:50.620Z,4.40
2019-03-11T09:19:57.707Z,4.50
2019-03-11T09:25:04.988Z,4.60
2019-03-11T09:30:15.086Z,4.50
2019-03-11T09:35:24.295Z,4.30
2019-03-11T09:40:31.414Z,4.60
2019-03-11T09:45:39.525Z,5.20
2019-03-11T09:50:46.628Z,5.60
2019-03-11T09:55:53.724Z,6.00
2019-03-11T10:01:04.013Z,5.90
2019-03-11T10:06:11.424Z,5.90
2019-03-11T10:11:18.706Z,6.00
2019-03-11T10:16:25.809Z,6.50
2019-03-11T10:21:33.009Z,6.40
2019-03-11T10:26:41.132Z,6.50
2019-03-11T10:31:49.309Z,6.70
2019-03-11T10:36:56.455Z,6.20
2019-03-11T10:42:05.922Z,6.40
2019-03-11T10:47:13.142Z,7.00
2019-03-11T10:52:20.349Z,7.60
2019-03-11T10:57:27.616Z,8.00
2019-03-11T11:02:34.889Z,8.30
2019-03-11T11:07:42.246Z,8.40
2019-03-11T11:12:49.436Z,8.30
2019-03-11T11:17:56.536Z,7.90
2019-03-11T11:23:06.894Z,8.30
2019-03-11T11:28:17.307Z,8.50
2019-03-11T11:33:24.470Z,8.90
2019-03-11T11:38:31.678Z,9.10
2019-03-11T11:43:38.775Z,8.50
2019-03-11T11:48:45.859Z,8.40
2019-03-11T11:53:53.400Z,8.80
2019-03-11T11:59:00.556Z,9.20
2019-03-11T12:04:08.112Z,8.00
2019-03-11T12:09:16.053Z,8.60
2019-03-11T12:14:23.256Z,9.30
2019-03-11T12:19:31.824Z,10.60
2019-03-11T12:24:39.660Z,9.60
2019-03-11T12:29:46.852Z,11.00
2019-03-11T12:34:55.224Z,13.00
2019-03-11T12:40:03.822Z,14.90
2019-03-11T12:45:12.698Z,16.00
2019-03-11T12:50:21.112Z,16.10
2019-03-11T12:55:28.551Z,16.20
2019-03-11T13:00:36.760Z,17.20
2019-03-11T13:05:44.898Z,16.70
2019-03-11T13:10:52.225Z,16.40
2019-03-11T13:15:59.289Z,17.50
2019-03-11T13:21:28.592Z,20.10
2019-03-11T13:26:36.114Z,17.50
2019-03-11T13:31:45.576Z,12.80
2019-03-11T13:36:52.718Z,13.00
2019-03-11T13:41:59.888Z,14.40
2019-03-11T13:47:07.099Z,11.60
2019-03-11T13:52:14.252Z,9.80
2019-03-11T13:57:21.281Z,9.90
2019-03-11T14:02:28.415Z,13.20
2019-03-11T14:07:35.561Z,12.50
2019-03-11T14:12:42.867Z,11.00
2019-03-11T14:17:52.060Z,12.00
2019-03-11T14:22:59.225Z,14.30
2019-03-11T14:28:08.044Z,17.60
2019-03-11T14:33:17.203Z,17.90
2019-03-11T14:38:24.525Z,15.20
2019-03-11T14:43:31.723Z,16.10
2019-03-11T14:48:39.848Z,17.00
2019-03-11T14:53:47.134Z,15.70
2019-03-11T14:58:55.088Z,15.70
2019-03-11T15:04:02.353Z,15.80
2019-03-11T15:09:12.816Z,16.30
2019-03-11T15:14:19.902Z,16.50
2019-03-11T15:19:30.187Z,17.10
2019-03-11T15:24:37.477Z,18.10
2019-03-11T15:29:44.622Z,19.10
2019-03-11T15:34:52.641Z,18.80
2019-03-11T15:39:59.747Z,18.40
2019-03-11T15:45:07.542Z,17.10
2019-03-11T15:50:17.149Z,14.30
2019-03-11T15:55:24.241Z,11.40
2019-03-11T16:00:31.499Z,9.20
2019-03-11T16:05:40.395Z,7.80
2019-03-11T16:10:47.748Z,6.80
2019-03-11T16:15:54.822Z,6.50
2019-03-11T16:21:01.898Z,5.90
2019-03-11T16:26:09.315Z,5.50
2019-03-11T16:31:17.489Z,5.20
2019-03-11T16:36:26.370Z,4.90
2019-03-11T16:41:33.656Z,4.50
2019-03-11T16:46:44.805Z,4.20
2019-03-11T16:51:52.316Z,4.00
2019-03-11T16:56:59.470Z,3.80
2019-03-11T17:02:06.645Z,3.50
2019-03-11T17:07:13.723Z,3.20
2019-03-11T17:12:20.812Z,2.70
2019-03-11T17:17:28.016Z,2.60
2019-03-11T17:22:35.176Z,2.60
2019-03-11T17:27:42.523Z,2.50
2019-03-11T17:32:50.021Z,2.30
2019-03-11T17:37:57.103Z,2.10
2019-03-11T17:43:04.210Z,2.00
2019-03-11T17:48:11.351Z,1.90
2019-03-11T17:53:20.215Z,1.80
2019-03-11T17:58:27.384Z,1.70
2019-03-11T18:03:34.902Z,1.60
2019-03-11T18:08:41.967Z,1.50
2019-03-11T18:13:49.027Z,1.40
2019-03-11T18:18:56.149Z,1.20
2019-03-11T18:24:03.442Z,1.30
2019-03-11T18:29:10.542Z,1.20
2019-03-11T18:34:17.921Z,1.20
2019-03-11T18:39:25.291Z,1.20
2019-03-11T18:44:32.465Z,1.10
2019-03-11T18:49:39.630Z,1.00
2019-03-11T18:54:46.813Z,0.80
2019-03-11T18:59:53.962Z,0.70
2019-03-11T19:05:02.477Z,0.60
2019-03-11T19:15:20.189Z,0.50
2019-03-11T19:20:27.418Z,0.50
2019-03-11T19:25:34.660Z,0.30
2019-03-11T19:30:42.080Z,0.30
2019-03-11T19:35:50.443Z,0.20
2019-03-11T19:41:00.132Z,0.30
2019-03-11T19:46:07.432Z,0.30
2019-03-11T19:51:14.777Z,0.20
2019-03-11T19:56:21.956Z,0.20
2019-03-11T20:01:29.270Z,0.10
2019-03-11T20:06:36.420Z,0.10
2019-03-11T20:11:44.676Z,0.10
2019-03-11T20:16:52.021Z,0.00
2019-03-11T20:21:59.486Z,0.00
2019-03-11T20:27:06.726Z,-0.10
2019-03-11T20:32:13.917Z,0.00
2019-03-11T20:37:21.229Z,-0.10
2019-03-11T20:42:28.393Z,-0.10
2019-03-11T20:47:37.492Z,-0.20
2019-03-11T20:58:24.626Z,-0.20
2019-03-11T21:03:32.585Z,-0.10
2019-03-11T21:08:39.913Z,-0.20
2019-03-11T21:13:47.123Z,-0.20
2019-03-11T21:18:54.387Z,-0.20
2019-03-11T21:24:02.458Z,-0.20
2019-03-11T21:29:09.843Z,-0.20
2019-03-11T21:34:17.096Z,-0.20
2019-03-11T21:39:24.327Z,-0.20
2019-03-11T21:44:31.371Z,-0.20
2019-03-11T21:49:38.430Z,-0.20
2019-03-11T21:54:47.557Z,-0.20
2019-03-11T21:59:54.413Z,-0.10
2019-03-11T22:05:01.751Z,0.00
2019-03-11T22:10:09.707Z,-0.10
2019-03-11T22:15:16.964Z,-0.20
2019-03-11T22:20:24.030Z,-0.20
2019-03-11T22:25:31.549Z,-0.20
2019-03-11T22:30:38.606Z,-0.20
2019-03-11T22:35:45.994Z,-0.20
2019-03-11T22:40:53.081Z,-0.20
2019-03-11T22:46:00.320Z,-0.40
2019-03-11T22:51:07.410Z,-0.60
2019-03-11T22:56:14.492Z,-0.60
2019-03-11T23:01:21.926Z,-0.50
2019-03-11T23:06:30.650Z,-0.60
2019-03-11T23:11:38.337Z,-0.60
2019-03-11T23:16:45.819Z,-0.60
2019-03-11T23:21:52.928Z,-0.70
2019-03-11T23:27:00.762Z,-0.70
2019-03-11T23:32:07.844Z,-0.80
2019-03-11T23:37:15.021Z,-0.80
2019-03-11T23:42:22.133Z,-0.70
2019-03-11T23:47:29.562Z,-0.70
2019-03-11T23:52:36.632Z,-0.70
2019-03-11T23:57:43.802Z,-0.80
